Time;durP1;ratioP1;P1;durP2;ratioP2;P2;SDS_P1;SDS_P2;PMS_P1;PMS_P2;Temp;Humidity;BMP_temperature;BMP_pressure;BME280_temperature;BME280_humidity;BME280_pressure;Samples;Min_cycle;Max_cycle;Signal;HPM_P1;HPM_P2
2023/11/17 00:01:44;;;;;;;14.60;6.20;;;;;;;4.37;100.00;101686.88;6084856;19;20011;-72
2023/11/17 00:03:46;;;;;;;12.68;6.97;;;;;;;4.38;100.00;101691.22;6085415;19;20106;-72
2023/11/17 00:05:51;;;;;;;17.88;8.45;;;;;;;4.37;100.00;101689.47;6085832;19;20348;-72
2023/11/17 00:07:54;;;;;;;18.40;7.18;;;;;;;4.41;100.00;101691.22;6079632;19;20006;-72
2023/11/17 00:09:59;;;;;;;17.95;8.25;;;;;;;4.45;100.00;101686.88;6085946;19;20070;-72
2023/11/17 00:12:01;;;;;;;15.52;8.00;;;;;;;4.50;100.00;101690.31;6081731;19;20074;-72
2023/11/17 00:14:06;;;;;;;13.63;8.00;;;;;;;4.51;100.00;101690.34;6084605;19;20011;-72
2023/11/17 00:16:12;;;;;;;18.58;8.23;;;;;;;4.52;100.00;101696.41;6086099;19;20038;-72
2023/11/17 00:18:19;;;;;;;17.55;7.60;;;;;;;4.53;100.00;101699.03;6085320;19;20019;-71
2023/11/17 00:20:24;;;;;;;12.43;7.53;;;;;;;4.51;100.00;101707.69;6078673;19;20073;-71
2023/11/17 00:22:29;;;;;;;16.05;7.65;;;;;;;4.50;100.00;101704.22;6084007;19;20029;-72
2023/11/17 00:24:34;;;;;;;16.85;9.00;;;;;;;4.53;100.00;101704.22;6085052;19;20007;-72
2023/11/17 00:26:39;;;;;;;13.80;8.32;;;;;;;4.56;100.00;101696.41;6084759;19;20074;-72
2023/11/17 00:28:44;;;;;;;20.33;8.15;;;;;;;4.57;100.00;101698.13;6079612;19;20103;-74
2023/11/17 00:30:50;;;;;;;16.45;7.63;;;;;;;4.62;100.00;101704.19;6084506;19;20049;-71
2023/11/17 00:32:55;;;;;;;15.95;7.28;;;;;;;4.66;100.00;101712.00;6083844;19;20010;-74
2023/11/17 00:35:04;;;;;;;16.88;8.50;;;;;;;4.67;100.00;101712.00;6083721;19;20342;-74
2023/11/17 00:37:09;;;;;;;13.85;7.43;;;;;;;4.65;100.00;101713.72;6088358;19;20003;-75
2023/11/17 00:39:15;;;;;;;16.42;7.22;;;;;;;4.68;100.00;101718.94;6085137;19;20178;-75
2023/11/17 00:41:19;;;;;;;16.42;8.13;;;;;;;4.65;100.00;101718.06;6084330;19;20019;-75
2023/11/17 00:43:34;;;;;;;14.73;7.70;;;;;;;4.61;100.00;101725.03;6085043;19;20006;-75
2023/11/17 00:45:39;;;;;;;14.65;6.88;;;;;;;4.64;100.00;101719.81;6084100;19;20003;-76
2023/11/17 00:47:44;;;;;;;18.17;7.13;;;;;;;4.64;100.00;101717.22;6083695;19;20010;-76
2023/11/17 00:49:46;;;;;;;15.25;7.10;;;;;;;4.68;100.00;101720.66;6086163;19;20006;-75
2023/11/17 00:51:54;;;;;;;17.33;7.15;;;;;;;4.68;100.00;101725.88;6087368;19;20014;-77
2023/11/17 00:54:00;;;;;;;15.88;8.00;;;;;;;4.65;100.00;101731.97;6087641;19;20352;-75
2023/11/17 00:56:06;;;;;;;16.00;7.45;;;;;;;4.66;100.00;101723.28;6090624;19;20007;-75
2023/11/17 00:58:08;;;;;;;15.82;7.47;;;;;;;4.63;100.00;101733.69;6089341;19;20006;-75
2023/11/17 01:00:15;;;;;;;13.15;7.43;;;;;;;4.66;100.00;101733.72;6083066;19;20070;-75
2023/11/17 01:02:20;;;;;;;16.75;8.73;;;;;;;4.68;100.00;101733.69;6088595;19;20026;-75
2023/11/17 01:04:25;;;;;;;18.08;8.82;;;;;;;4.67;100.00;101735.44;6085283;19;20125;-73
2023/11/17 01:06:27;;;;;;;14.52;7.70;;;;;;;4.65;100.00;101734.56;6089426;19;20381;-75
2023/11/17 01:08:35;;;;;;;21.58;8.82;;;;;;;4.66;100.00;101733.72;6089158;19;20026;-75
2023/11/17 01:10:40;;;;;;;22.15;9.55;;;;;;;4.67;100.00;101739.78;6089023;19;20014;-72
2023/11/17 01:12:43;;;;;;;18.73;8.10;;;;;;;4.66;100.00;101736.31;6090579;19;20055;-72
2023/11/17 01:14:48;;;;;;;14.02;8.88;;;;;;;4.70;100.00;101745.84;6091020;19;20086;-72
2023/11/17 01:16:53;;;;;;;19.50;8.38;;;;;;;4.72;100.00;101751.06;6089561;19;20299;-72
2023/11/17 01:18:58;;;;;;;14.80;8.60;;;;;;;4.74;100.00;101744.97;6084435;19;20011;-72
2023/11/17 01:21:00;;;;;;;17.10;8.10;;;;;;;4.76;100.00;101750.16;6083578;19;20944;-72
2023/11/17 01:23:06;;;;;;;16.10;7.82;;;;;;;4.76;100.00;101753.63;6088641;19;20007;-72
2023/11/17 01:25:14;;;;;;;14.32;7.78;;;;;;;4.77;100.00;101751.91;6088744;19;20518;-72
2023/11/17 01:27:16;;;;;;;17.65;8.82;;;;;;;4.76;100.00;101756.22;6088286;19;20007;-73
2023/11/17 01:29:21;;;;;;;17.67;8.60;;;;;;;4.78;100.00;101757.09;6089623;19;20006;-75
2023/11/17 01:31:26;;;;;;;18.77;8.02;;;;;;;4.75;100.00;101757.13;6087465;19;20518;-75
2023/11/17 01:33:31;;;;;;;18.45;7.80;;;;;;;4.75;100.00;101764.06;6090669;19;20010;-75
2023/11/17 01:35:38;;;;;;;18.17;7.80;;;;;;;4.79;100.00;101761.47;6089881;19;20030;-75
2023/11/17 01:37:40;;;;;;;20.88;9.38;;;;;;;4.75;100.00;101759.72;6089853;19;20024;-73
2023/11/17 01:39:45;;;;;;;15.35;8.30;;;;;;;4.78;100.00;101764.91;6085856;19;20003;-72
2023/11/17 01:41:53;;;;;;;15.98;8.90;;;;;;;4.78;100.00;101764.91;6090479;19;20019;-72
2023/11/17 01:44:00;;;;;;;20.73;8.52;;;;;;;4.80;100.00;101763.19;6089282;19;20033;-72
2023/11/17 01:46:03;;;;;;;17.17;8.60;;;;;;;4.83;100.00;101765.78;6089658;19;20041;-75
2023/11/17 01:48:08;;;;;;;;;;;;;;;4.82;100.00;101774.47;6090223;19;20655;-75
2023/11/17 01:50:15;;;;;;;15.90;7.78;;;;;;;4.81;100.00;101777.06;6088442;19;19943;-72
2023/11/17 01:52:19;;;;;;;12.25;7.30;;;;;;;4.83;100.00;101775.31;6085356;19;20013;-75
2023/11/17 01:54:24;;;;;;;15.32;6.97;;;;;;;4.83;100.00;101777.94;6087471;19;20011;-72
2023/11/17 01:56:30;;;;;;;16.92;7.55;;;;;;;4.86;100.00;101783.13;6083043;19;20027;-74
2023/11/17 01:58:38;;;;;;;15.15;7.50;;;;;;;4.84;100.00;101772.72;6086849;19;20078;-73
2023/11/17 02:00:44;;;;;;;17.77;8.73;;;;;;;4.84;100.00;101770.13;6090236;19;20588;-75
2023/11/17 02:02:51;;;;;;;14.27;7.60;;;;;;;4.86;100.00;101770.09;6087156;19;20085;-75
2023/11/17 02:04:54;;;;;;;15.32;7.35;;;;;;;4.87;100.00;101768.38;6088832;19;20348;-74
2023/11/17 02:07:05;;;;;;;15.75;7.13;;;;;;;4.86;100.00;101772.72;6088912;19;20013;-75
2023/11/17 02:09:22;;;;;;;17.15;8.85;;;;;;;4.84;100.00;101775.34;6089328;19;20011;-74
2023/11/17 02:11:34;;;;;;;17.33;8.48;;;;;;;4.86;100.00;101777.91;6089130;19;20494;-74
2023/11/17 02:13:43;;;;;;;16.85;8.57;;;;;;;4.84;100.00;101772.72;6089631;19;20006;-71
2023/11/17 02:15:48;;;;;;;12.82;7.05;;;;;;;4.88;100.00;101775.31;6089256;19;20037;-72
2023/11/17 02:17:54;;;;;;;14.70;6.93;;;;;;;4.87;100.00;101782.28;6089722;19;20007;-72
2023/11/17 02:20:11;;;;;;;19.10;8.27;;;;;;;4.85;100.00;101781.41;6089612;19;20003;-75
2023/11/17 02:22:21;;;;;;;18.10;9.15;;;;;;;4.83;100.00;101775.31;6090419;19;20010;-74
2023/11/17 02:24:30;;;;;;;19.52;7.57;;;;;;;4.84;100.00;101777.06;6090702;19;20396;-76
2023/11/17 02:26:47;;;;;;;15.68;8.48;;;;;;;4.84;100.00;101779.66;6086667;19;20007;-75
2023/11/17 02:29:04;;;;;;;14.15;6.82;;;;;;;4.82;100.00;101776.22;5985368;19;2004701;-75
2023/11/17 02:31:17;;;;;;;20.50;8.02;;;;;;;4.82;100.00;101773.59;6089636;19;20009;-75
2023/11/17 02:33:22;;;;;;;15.52;7.63;;;;;;;4.87;100.00;101773.56;6089668;19;20011;-72
2023/11/17 02:35:29;;;;;;;16.48;8.32;;;;;;;4.89;100.00;101769.25;6089867;19;20015;-72
2023/11/17 02:37:31;;;;;;;18.65;8.23;;;;;;;4.91;100.00;101770.97;6087257;19;20010;-73
2023/11/17 02:39:39;;;;;;;15.57;8.15;;;;;;;4.92;100.00;101770.09;6089098;19;20070;-73
2023/11/17 02:41:44;;;;;;;16.27;8.57;;;;;;;4.90;100.00;101777.06;6088577;19;20042;-72
2023/11/17 02:43:49;;;;;;;14.80;6.38;;;;;;;4.89;100.00;101769.25;6083853;19;20015;-73
2023/11/17 02:45:57;;;;;;;14.85;8.60;;;;;;;4.91;100.00;101765.75;6086386;19;20066;-73
2023/11/17 02:48:10;;;;;;;14.63;8.15;;;;;;;4.89;100.00;101758.81;6088640;19;20030;-72
2023/11/17 02:50:38;;;;;;;14.00;8.33;;;;;;;4.89;100.00;101761.44;6085714;19;20011;-73
2023/11/17 02:52:54;;;;;;;14.88;8.18;;;;;;;4.89;100.00;101761.44;6082981;19;20851;-72
2023/11/17 02:55:02;;;;;;;12.98;7.10;;;;;;;4.85;100.00;101752.75;5984672;19;2004856;-72
2023/11/17 02:57:08;;;;;;;13.73;7.82;;;;;;;4.83;100.00;101755.34;6082626;19;20757;-71
2023/11/17 02:59:11;;;;;;;14.55;8.10;;;;;;;4.83;100.00;101752.75;6087916;19;20082;-72
2023/11/17 03:01:18;;;;;;;15.05;7.68;;;;;;;4.85;100.00;101750.16;6086860;19;20156;-72
2023/11/17 03:03:26;;;;;;;22.55;7.95;;;;;;;4.82;100.00;101752.78;6085573;19;20340;-74
2023/11/17 03:05:31;;;;;;;18.80;7.57;;;;;;;4.88;100.00;101751.88;6089013;19;20102;-74
2023/11/17 03:07:36;;;;;;;12.40;7.28;;;;;;;4.82;100.00;101753.63;6087598;19;20249;-74
2023/11/17 03:09:42;;;;;;;13.20;6.50;;;;;;;4.86;100.00;101753.63;6087276;19;20002;-75
2023/11/17 03:11:44;;;;;;;18.17;7.90;;;;;;;4.88;100.00;101760.56;6081992;19;20075;-74
2023/11/17 03:13:50;;;;;;;15.25;6.97;;;;;;;4.89;100.00;101753.59;6086456;19;20018;-74
2023/11/17 03:15:53;;;;;;;14.30;7.03;;;;;;;4.90;100.00;101748.41;6085961;19;20494;-75
2023/11/17 03:18:00;;;;;;;14.43;5.97;;;;;;;4.96;100.00;101752.72;6081194;19;20376;-75
2023/11/17 03:20:14;;;;;;;14.15;7.30;;;;;;;4.99;100.00;101750.13;6085536;19;20007;-74
2023/11/17 03:22:19;;;;;;;15.25;5.35;;;;;;;5.00;100.00;101749.22;6087002;19;20007;-74
2023/11/17 03:24:26;;;;;;;13.02;5.38;;;;;;;5.06;100.00;101751.84;6086736;19;20049;-75
2023/11/17 03:26:31;;;;;;;14.00;6.68;;;;;;;5.05;100.00;101737.06;6087705;19;20338;-74
2023/11/17 03:28:36;;;;;;;11.32;5.63;;;;;;;5.07;100.00;101740.53;6088620;19;20483;-76
2023/11/17 03:30:41;;;;;;;11.45;5.78;;;;;;;5.10;100.00;101745.72;6086664;19;20422;-73
2023/11/17 03:32:46;;;;;;;12.35;6.20;;;;;;;5.11;100.00;101747.47;6087070;19;20030;-71
2023/11/17 03:34:52;;;;;;;16.65;6.88;;;;;;;5.11;100.00;101751.81;6084278;19;20037;-73
2023/11/17 03:37:01;;;;;;;16.13;7.07;;;;;;;5.14;100.00;101755.28;6083965;19;20121;-72
2023/11/17 03:39:12;;;;;;;17.63;6.38;;;;;;;5.15;100.00;101749.19;6084484;19;20470;-72
2023/11/17 03:41:22;;;;;;;15.77;6.60;;;;;;;5.12;100.00;101751.81;6085944;19;20487;-72
2023/11/17 03:43:30;;;;;;;18.85;6.32;;;;;;;5.10;100.00;101753.53;6085156;19;20125;-72
2023/11/17 03:45:35;;;;;;;12.75;6.68;;;;;;;5.10;100.00;101747.47;6085695;19;20337;-72
2023/11/17 03:47:40;;;;;;;12.02;6.57;;;;;;;5.11;100.00;101747.47;6085580;19;20014;-73
2023/11/17 03:49:47;;;;;;;19.70;8.38;;;;;;;5.10;100.00;101737.06;6085013;19;20015;-72
2023/11/17 03:51:53;;;;;;;12.23;6.32;;;;;;;5.12;100.00;101746.59;6086332;19;20022;-72
2023/11/17 03:53:58;;;;;;;16.60;7.15;;;;;;;5.17;100.00;101749.19;6080540;19;20014;-75
2023/11/17 03:56:03;;;;;;;19.83;8.23;;;;;;;5.15;100.00;101743.13;6085545;19;20679;-75
2023/11/17 03:58:08;;;;;;;17.98;6.75;;;;;;;5.14;100.00;101738.78;6085640;19;20024;-76
2023/11/17 04:00:15;;;;;;;20.92;7.75;;;;;;;5.13;100.00;101742.25;6085875;19;20029;-75
2023/11/17 04:02:22;;;;;;;21.50;7.65;;;;;;;5.12;100.00;101737.91;6084537;19;20029;-75
2023/11/17 04:04:25;;;;;;;20.83;8.15;;;;;;;5.12;100.00;101738.78;6085811;19;20330;-75
2023/11/17 04:06:31;;;;;;;17.25;7.68;;;;;;;5.12;100.00;101743.13;6085188;19;20483;-75
2023/11/17 04:08:35;;;;;;;18.15;8.60;;;;;;;5.14;100.00;101749.22;6085786;19;20018;-75
2023/11/17 04:10:43;;;;;;;22.60;9.70;;;;;;;5.17;100.00;101749.19;6082632;19;20365;-74
2023/11/17 04:12:48;;;;;;;18.30;8.77;;;;;;;5.17;100.00;101755.28;6084150;19;21081;-75
2023/11/17 04:14:53;;;;;;;21.17;8.70;;;;;;;5.20;100.00;101752.66;6084831;19;20021;-75
2023/11/17 04:16:58;;;;;;;20.27;8.50;;;;;;;5.19;100.00;101756.13;6084542;19;20014;-74
2023/11/17 04:19:03;;;;;;;19.50;9.00;;;;;;;5.20;100.00;101752.66;6084005;19;20086;-75
2023/11/17 04:21:10;;;;;;;22.30;9.25;;;;;;;5.18;100.00;101759.59;6080092;19;20006;-75
2023/11/17 04:23:15;;;;;;;22.52;8.90;;;;;;;5.17;100.00;101757.00;6082315;19;20162;-75
2023/11/17 04:25:18;;;;;;;29.55;9.48;;;;;;;5.17;100.00;101763.09;6087290;19;20034;-76
2023/11/17 04:27:25;;;;;;;26.67;9.15;;;;;;;5.14;100.00;101757.88;6092412;19;20017;-75
2023/11/17 04:29:31;;;;;;;17.23;8.82;;;;;;;5.12;100.00;101758.75;6091452;19;20010;-72
2023/11/17 04:31:35;;;;;;;19.83;8.50;;;;;;;5.12;100.00;101759.63;6088770;19;20006;-72
2023/11/17 04:33:40;;;;;;;20.90;10.10;;;;;;;5.10;100.00;101763.09;6091629;19;20087;-72
2023/11/17 04:35:45;;;;;;;25.70;9.32;;;;;;;5.06;100.00;101763.13;6089810;19;20006;-72
2023/11/17 04:37:50;;;;;;;17.15;8.20;;;;;;;5.05;100.00;101765.72;6089837;19;20010;-72
2023/11/17 04:39:55;;;;;;;21.30;9.48;;;;;;;5.03;100.00;101770.09;6087111;19;20077;-75
2023/11/17 04:42:00;;;;;;;22.58;8.38;;;;;;;5.01;100.00;101777.03;6089492;19;20375;-72
2023/11/17 04:44:08;;;;;;;24.55;9.13;;;;;;;5.01;100.00;101779.63;6089614;19;20037;-73
2023/11/17 04:46:16;;;;;;;23.52;9.27;;;;;;;4.99;100.00;101776.16;6089706;19;19998;-73
2023/11/17 04:48:24;;;;;;;27.80;10.50;;;;;;;4.99;100.00;101777.03;6090098;19;20281;-76
2023/11/17 04:50:28;;;;;;;18.77;8.57;;;;;;;4.95;100.00;101772.72;6088913;19;20066;-72
2023/11/17 04:52:34;;;;;;;18.50;9.07;;;;;;;4.98;100.00;101779.66;6088432;19;20342;-72
2023/11/17 04:54:39;;;;;;;21.25;10.10;;;;;;;4.95;100.00;101767.50;6087431;19;20014;-73
2023/11/17 04:56:44;;;;;;;23.85;9.25;;;;;;;4.95;100.00;101764.91;6088986;19;20007;-72
2023/11/17 04:58:49;;;;;;;19.00;8.73;;;;;;;4.95;100.00;101774.41;6092004;19;20078;-75
2023/11/17 05:00:57;;;;;;;21.00;8.80;;;;;;;4.94;100.00;101776.16;6088934;19;20021;-72
2023/11/17 05:03:02;;;;;;;17.63;8.65;;;;;;;4.93;100.00;101773.59;6085518;19;20507;-72
2023/11/17 05:05:10;;;;;;;20.10;9.10;;;;;;;4.90;100.00;101774.44;6089063;19;20006;-72
2023/11/17 05:07:15;;;;;;;16.92;8.00;;;;;;;4.92;100.00;101783.09;6089478;19;20397;-76
2023/11/17 05:09:22;;;;;;;14.98;7.15;;;;;;;4.90;100.00;101787.47;6090536;19;20602;-75
2023/11/17 05:11:24;;;;;;;26.42;8.57;;;;;;;4.90;100.00;101783.97;6089100;19;20532;-75
2023/11/17 05:13:29;;;;;;;19.77;8.65;;;;;;;4.90;100.00;101786.59;6087551;19;20002;-73
2023/11/17 05:15:32;;;;;;;21.63;8.85;;;;;;;4.89;100.00;101784.88;6089237;19;20006;-72
2023/11/17 05:17:48;;;;;;;22.77;9.23;;;;;;;4.90;100.00;101786.59;6089709;19;20025;-71
2023/11/17 05:19:52;;;;;;;18.95;8.82;;;;;;;4.87;100.00;101784.00;6087995;19;20003;-72
2023/11/17 05:21:57;;;;;;;28.50;10.07;;;;;;;4.89;100.00;101787.47;6090779;19;20026;-72
2023/11/17 05:24:02;;;;;;;25.38;9.10;;;;;;;4.88;100.00;101789.22;6090891;19;20818;-72
2023/11/17 05:26:08;;;;;;;26.45;10.20;;;;;;;4.88;100.00;101794.41;6089760;19;20413;-72
2023/11/17 05:28:14;;;;;;;27.55;11.20;;;;;;;4.89;100.00;101796.13;6085691;19;20018;-72
2023/11/17 05:30:19;;;;;;;24.80;9.32;;;;;;;4.88;100.00;101797.03;6087988;19;20462;-72
2023/11/17 05:32:26;;;;;;;22.50;10.52;;;;;;;4.88;100.00;101801.38;6089322;19;20006;-71
2023/11/17 05:34:35;;;;;;;17.13;8.25;;;;;;;4.87;100.00;101807.44;6092208;19;20018;-72
2023/11/17 05:36:41;;;;;;;21.73;8.20;;;;;;;4.87;100.00;101810.03;6087898;19;19999;-72
2023/11/17 05:38:48;;;;;;;17.80;8.50;;;;;;;4.87;100.00;101804.81;6089961;19;20545;-72
2023/11/17 05:40:53;;;;;;;23.92;9.57;;;;;;;4.84;100.00;101798.78;6087954;19;20486;-72
2023/11/17 05:43:05;;;;;;;22.08;9.68;;;;;;;4.82;100.00;101803.13;6089481;19;20414;-73
2023/11/17 05:45:13;;;;;;;22.58;10.48;;;;;;;4.82;100.00;101810.94;6084958;19;20010;-71
2023/11/17 05:47:17;;;;;;;24.10;10.52;;;;;;;4.78;100.00;101803.09;6082693;19;20007;-72
2023/11/17 05:49:23;;;;;;;23.55;8.70;;;;;;;4.78;100.00;101809.19;6086533;19;20007;-71
2023/11/17 05:51:31;;;;;;;25.38;9.57;;;;;;;4.75;100.00;101803.13;6089117;19;20269;-72
2023/11/17 05:53:33;;;;;;;23.42;10.32;;;;;;;4.72;100.00;101806.59;6085979;19;20474;-71
2023/11/17 05:55:41;;;;;;;28.85;9.35;;;;;;;4.71;100.00;101802.22;6089589;19;20098;-71
2023/11/17 05:57:47;;;;;;;27.23;10.73;;;;;;;4.68;100.00;101810.06;6089717;19;20011;-71
2023/11/17 05:59:53;;;;;;;21.00;9.00;;;;;;;4.64;100.00;101808.34;6088325;19;20006;-72
2023/11/17 06:02:00;;;;;;;27.58;10.68;;;;;;;4.62;100.00;101816.13;6088876;19;20098;-74
2023/11/17 06:04:08;;;;;;;24.08;9.50;;;;;;;4.60;100.00;101814.41;6088214;19;20020;-72
2023/11/17 06:06:13;;;;;;;21.48;9.80;;;;;;;4.61;100.00;101819.63;6086576;19;20017;-71
2023/11/17 06:08:22;;;;;;;22.98;9.07;;;;;;;4.62;100.00;101828.28;6089722;19;20009;-71
2023/11/17 06:10:27;;;;;;;21.23;8.77;;;;;;;4.63;100.00;101830.00;6088137;19;20010;-72
2023/11/17 06:12:33;;;;;;;34.35;10.23;;;;;;;4.62;100.00;101830.88;6085485;19;20011;-72
2023/11/17 06:14:41;;;;;;;18.83;8.07;;;;;;;4.60;100.00;101824.81;6086651;19;20014;-72
2023/11/17 06:16:45;;;;;;;20.40;10.20;;;;;;;4.58;100.00;101826.53;6088408;19;20011;-72
2023/11/17 06:18:51;;;;;;;19.73;9.32;;;;;;;4.58;100.00;101829.13;6088520;19;20017;-72
2023/11/17 06:20:56;;;;;;;24.90;9.93;;;;;;;4.56;100.00;101833.50;6086586;19;20037;-72
2023/11/17 06:23:01;;;;;;;21.67;8.70;;;;;;;4.56;100.00;101838.72;6088709;19;20413;-72
2023/11/17 06:25:10;;;;;;;16.65;7.55;;;;;;;4.52;100.00;101832.63;6089564;19;20018;-72
2023/11/17 06:27:15;;;;;;;25.95;9.65;;;;;;;4.53;100.00;101836.09;6084959;19;20443;-72
2023/11/17 06:29:22;;;;;;;19.52;9.05;;;;;;;4.52;100.00;101839.56;6088119;19;20018;-74
2023/11/17 06:31:28;;;;;;;24.70;9.70;;;;;;;4.52;100.00;101836.97;6088196;19;20014;-74
2023/11/17 06:33:35;;;;;;;25.13;10.00;;;;;;;4.52;100.00;101843.03;6082918;19;20050;-74
2023/11/17 06:35:40;;;;;;;21.13;9.23;;;;;;;4.51;100.00;101841.31;6086531;19;20479;-71
2023/11/17 06:37:43;;;;;;;18.92;9.15;;;;;;;4.48;100.00;101838.69;6084470;19;20120;-71
2023/11/17 06:39:48;;;;;;;25.15;9.73;;;;;;;4.48;100.00;101843.03;6086134;19;20467;-71
2023/11/17 06:41:56;;;;;;;25.35;11.52;;;;;;;4.48;100.00;101843.91;6088005;19;20212;-71
2023/11/17 06:44:00;;;;;;;21.60;10.48;;;;;;;4.46;100.00;101843.03;6084336;19;20792;-71
2023/11/17 06:46:07;;;;;;;23.17;9.70;;;;;;;4.45;100.00;101837.81;6087870;19;20018;-72
2023/11/17 06:48:13;;;;;;;28.30;9.95;;;;;;;4.43;100.00;101840.44;6088459;19;20232;-74
2023/11/17 06:50:18;;;;;;;25.27;9.93;;;;;;;4.42;100.00;101837.81;6087079;19;20054;-74
2023/11/17 06:52:24;;;;;;;26.75;11.45;;;;;;;4.43;100.00;101837.81;6080040;19;20118;-74
2023/11/17 06:54:29;;;;;;;29.73;11.38;;;;;;;4.40;100.00;101846.50;6084030;19;20049;-75
2023/11/17 06:56:34;;;;;;;25.77;10.27;;;;;;;4.42;100.00;101849.09;6085454;19;20007;-76
2023/11/17 06:58:42;;;;;;;32.25;12.45;;;;;;;4.42;100.00;101851.69;6085699;19;20013;-75
2023/11/17 07:00:48;;;;;;;26.10;11.10;;;;;;;4.45;100.00;101859.53;6087598;19;20489;-76
2023/11/17 07:02:53;;;;;;;33.00;12.45;;;;;;;4.42;100.00;101859.50;6085234;19;20007;-73
2023/11/17 07:04:58;;;;;;;30.40;12.68;;;;;;;4.43;100.00;101855.19;6085430;19;20082;-71
2023/11/17 07:07:04;;;;;;;23.83;12.00;;;;;;;4.44;100.00;101857.78;6079722;19;20034;-70
2023/11/17 07:09:19;;;;;;;29.55;13.52;;;;;;;4.43;100.00;101850.84;6085253;19;20020;-74
2023/11/17 07:11:24;;;;;;;32.08;13.73;;;;;;;4.56;100.00;101846.53;6003983;19;2004939;-72
2023/11/17 07:13:29;;;;;;;29.42;13.20;;;;;;;4.51;100.00;101856.91;6084791;19;20490;-73
2023/11/17 07:15:40;;;;;;;29.02;12.32;;;;;;;4.47;100.00;101862.97;6085581;19;20617;-71
2023/11/17 07:17:46;;;;;;;25.20;10.93;;;;;;;4.43;100.00;101863.00;6086190;19;20055;-75
2023/11/17 07:19:54;;;;;;;33.10;12.90;;;;;;;4.45;100.00;101858.63;6085493;19;20033;-70
2023/11/17 07:22:01;;;;;;;29.58;14.30;;;;;;;4.46;100.00;101868.19;6084433;19;20006;-70
2023/11/17 07:24:07;;;;;;;29.17;13.45;;;;;;;4.49;100.00;101865.59;6082785;19;20026;-70
2023/11/17 07:26:17;;;;;;;27.80;12.30;;;;;;;4.48;100.00;101875.13;6085401;19;20015;-70
2023/11/17 07:28:25;;;;;;;31.27;13.30;;;;;;;4.45;100.00;101869.94;6084985;19;20297;-72
2023/11/17 07:30:30;;;;;;;35.15;13.73;;;;;;;4.47;100.00;101870.78;6084840;19;20003;-71
2023/11/17 07:32:38;;;;;;;29.02;11.85;;;;;;;4.50;100.00;101870.81;6085387;19;20007;-71
2023/11/17 07:34:44;;;;;;;30.50;12.20;;;;;;;4.52;100.00;101870.78;6079261;19;20049;-74
2023/11/17 07:36:49;;;;;;;29.50;13.60;;;;;;;4.57;100.00;101876.88;6086178;19;20058;-72
2023/11/17 07:38:55;;;;;;;32.95;13.23;;;;;;;4.64;100.00;101873.41;6084960;19;20010;-71
2023/11/17 07:41:00;;;;;;;28.80;12.30;;;;;;;4.68;100.00;101871.69;6085409;19;20016;-75
2023/11/17 07:43:07;;;;;;;28.23;12.27;;;;;;;4.66;100.00;101870.81;6086053;19;20079;-72
2023/11/17 07:45:13;;;;;;;24.70;12.25;;;;;;;4.63;100.00;101874.25;6084992;19;20081;-74
2023/11/17 07:47:20;;;;;;;30.55;13.00;;;;;;;4.67;100.00;101882.97;6085034;19;20003;-74
2023/11/17 07:49:28;;;;;;;33.97;11.60;;;;;;;4.66;100.00;101889.03;6085175;19;20011;-73
2023/11/17 07:51:33;;;;;;;26.25;11.95;;;;;;;4.70;100.00;101882.97;6084813;19;20070;-73
2023/11/17 07:53:36;;;;;;;25.58;12.68;;;;;;;4.79;100.00;101890.75;6083150;19;20015;-71
2023/11/17 07:55:41;;;;;;;28.67;13.68;;;;;;;4.84;100.00;101881.22;6081705;19;19999;-71
2023/11/17 07:57:47;;;;;;;26.20;12.93;;;;;;;4.90;100.00;101889.06;6079818;19;20010;-72
2023/11/17 07:59:49;;;;;;;24.83;11.80;;;;;;;4.94;100.00;101892.50;6075449;19;20455;-71
2023/11/17 08:01:55;;;;;;;26.10;13.20;;;;;;;4.93;100.00;101896.00;6080377;19;20365;-74
2023/11/17 08:04:01;;;;;;;27.42;13.07;;;;;;;4.98;100.00;101895.13;6084349;19;20006;-73
2023/11/17 08:06:10;;;;;;;31.98;12.35;;;;;;;5.00;100.00;101897.72;6088334;19;20013;-74
2023/11/17 08:08:16;;;;;;;32.28;12.57;;;;;;;5.05;100.00;101902.06;6089695;19;20002;-74
2023/11/17 08:10:21;;;;;;;31.30;12.63;;;;;;;5.18;100.00;101899.44;6091634;19;20068;-74
2023/11/17 08:12:26;;;;;;;27.75;13.25;;;;;;;5.23;100.00;101902.91;6083704;19;20466;-73
2023/11/17 08:14:31;;;;;;;31.60;12.55;;;;;;;5.33;100.00;101899.41;6085588;19;20052;-72
2023/11/17 08:16:36;;;;;;;32.40;14.23;;;;;;;5.45;100.00;101903.72;6085974;19;20431;-76
2023/11/17 08:18:42;;;;;;;33.72;13.68;;;;;;;5.53;100.00;101906.31;6078239;19;19999;-75
2023/11/17 08:20:47;;;;;;;38.53;13.27;;;;;;;5.57;100.00;101902.84;6083933;19;20019;-77
2023/11/17 08:22:54;;;;;;;37.33;13.32;;;;;;;5.63;100.00;101906.28;6078734;19;20021;-75
2023/11/17 08:24:59;;;;;;;32.75;14.50;;;;;;;5.67;100.00;101909.78;6084215;19;20360;-73
2023/11/17 08:27:05;;;;;;;43.90;17.92;;;;;;;5.77;100.00;101900.19;6081021;19;20015;-74
2023/11/17 08:29:08;;;;;;;36.65;15.50;;;;;;;5.78;100.00;101901.91;6084498;19;20046;-75
2023/11/17 08:31:14;;;;;;;44.50;17.75;;;;;;;5.83;100.00;101910.59;6084765;19;20006;-74
2023/11/17 08:33:19;;;;;;;40.50;15.38;;;;;;;5.86;100.00;101911.44;6083264;19;20041;-73
2023/11/17 08:35:25;;;;;;;35.13;15.65;;;;;;;5.89;100.00;101921.00;6085791;19;20009;-75
2023/11/17 08:37:32;;;;;;;48.10;17.75;;;;;;;5.88;100.00;101914.06;6085276;19;20010;-72
2023/11/17 08:39:41;;;;;;;42.85;17.17;;;;;;;5.91;100.00;101909.69;6083142;19;20023;-72
2023/11/17 08:41:46;;;;;;;47.30;15.55;;;;;;;5.91;100.00;101912.28;6078077;19;20006;-74
2023/11/17 08:43:51;;;;;;;44.97;17.58;;;;;;;5.93;100.00;101907.97;6084457;19;20015;-74
2023/11/17 08:45:57;;;;;;;40.53;18.13;;;;;;;5.94;100.00;101912.31;6084163;19;20007;-73
2023/11/17 08:48:02;;;;;;;35.42;17.58;;;;;;;5.97;100.00;101919.25;6084312;19;20429;-73
2023/11/17 08:50:10;;;;;;;38.38;17.90;;;;;;;6.00;100.00;101918.38;6083359;19;20139;-72
2023/11/17 08:52:15;;;;;;;42.50;18.25;;;;;;;6.05;100.00;101922.69;6082702;19;20007;-74
2023/11/17 08:54:22;;;;;;;44.00;20.13;;;;;;;6.10;100.00;101918.31;6084097;19;20002;-74
2023/11/17 08:56:29;;;;;;;45.55;18.60;;;;;;;6.19;100.00;101924.38;6083747;19;20015;-74
2023/11/17 08:58:34;;;;;;;42.78;16.85;;;;;;;6.20;100.00;101921.75;6084664;19;20067;-74
2023/11/17 09:00:40;;;;;;;45.22;19.23;;;;;;;6.27;100.00;101923.47;6075445;19;20609;-74
2023/11/17 09:02:48;;;;;;;39.63;18.15;;;;;;;6.36;100.00;101920.78;6079135;19;20467;-71
2023/11/17 09:04:54;;;;;;;41.42;17.33;;;;;;;6.50;100.00;101927.69;6084900;19;20525;-74
2023/11/17 09:07:00;;;;;;;44.50;18.08;;;;;;;6.58;100.00;101934.63;6078927;19;20007;-74
2023/11/17 09:09:10;;;;;;;44.95;19.88;;;;;;;6.70;100.00;101940.63;6083892;19;20007;-74
2023/11/17 09:11:36;;;;;;;39.60;19.70;;;;;;;6.84;100.00;101940.53;6088741;19;20002;-72
2023/11/17 09:13:43;;;;;;;46.30;18.42;;;;;;;6.90;100.00;101933.50;6092027;19;20014;-75
2023/11/17 09:15:52;;;;;;;44.25;19.60;;;;;;;7.01;100.00;101936.91;6086102;19;20010;-72
2023/11/17 09:17:58;;;;;;;51.75;19.67;;;;;;;7.13;100.00;101943.75;6088643;19;20569;-75
2023/11/17 09:20:04;;;;;;;42.80;18.52;;;;;;;7.18;100.00;101952.44;6093115;19;20126;-75
2023/11/17 09:22:08;;;;;;;45.97;20.90;;;;;;;7.28;100.00;101950.63;6091300;19;20023;-74
2023/11/17 09:24:13;;;;;;;41.20;19.95;;;;;;;7.38;100.00;101952.28;6091262;19;20037;-74
2023/11/17 09:26:18;;;;;;;41.35;17.52;;;;;;;7.32;100.00;101949.72;6087327;19;20838;-71
2023/11/17 09:28:23;;;;;;;45.88;18.58;;;;;;;7.32;100.00;101954.94;6087577;19;20020;-73
2023/11/17 09:30:30;;;;;;;42.20;17.38;;;;;;;7.36;100.00;101961.88;6089138;19;20007;-74
2023/11/17 09:32:33;;;;;;;50.40;20.55;;;;;;;7.33;100.00;101961.91;6088020;19;20086;-74
2023/11/17 09:34:39;;;;;;;47.00;17.83;;;;;;;7.34;100.00;101961.00;6087838;19;20463;-71
2023/11/17 09:36:44;;;;;;;38.90;16.92;;;;;;;7.39;100.00;101968.81;6089570;19;20474;-74
2023/11/17 09:38:51;;;;;;;45.50;19.20;;;;;;;7.44;100.00;101970.50;6088610;19;20553;-74